Time;durP1;ratioP1;P1;durP2;ratioP2;P2;SDS_P1;SDS_P2;PMS_P1;PMS_P2;Temp;Humidity;BMP_temperature;BMP_pressure;BME280_temperature;BME280_humidity;BME280_pressure;Samples;Min_cycle;Max_cycle;Signal;HPM_P1;HPM_P2
2021/09/03 00:04:13;;;;;;;25.40;15.10;;;;;;;11.38;77.00;99276.76;457091;1203;108802;-41
2021/09/03 00:14:18;;;;;;;23.00;14.30;;;;;;;11.40;77.13;99271.76;456815;1203;107739;-41
2021/09/03 00:24:22;;;;;;;24.20;13.60;;;;;;;11.38;77.16;99270.80;457012;1195;97240;-42
2021/09/03 00:34:26;;;;;;;26.30;13.80;;;;;;;11.39;77.36;99266.23;456946;1200;107555;-41
2021/09/03 00:44:29;;;;;;;31.20;16.80;;;;;;;11.34;77.41;99261.14;457081;1195;98465;-41
2021/09/03 00:54:33;;;;;;;25.70;15.60;;;;;;;11.21;77.62;99254.23;457064;1196;97683;-41
2021/09/03 01:04:37;;;;;;;21.60;12.30;;;;;;;11.05;77.57;99242.67;456942;1203;108713;-41
2021/09/03 01:14:41;;;;;;;23.50;13.40;;;;;;;11.02;77.65;99230.04;456825;1204;97677;-41
2021/09/03 01:24:44;;;;;;;20.30;13.10;;;;;;;10.99;77.73;99225.45;457249;1203;110660;-42
2021/09/03 01:34:48;;;;;;;20.50;11.90;;;;;;;10.90;77.87;99211.10;456749;1204;108438;-42
2021/09/03 01:44:51;;;;;;;19.50;12.20;;;;;;;10.92;78.02;99211.21;456923;1203;97655;-42
2021/09/03 01:54:55;;;;;;;23.70;13.80;;;;;;;10.87;78.07;99208.23;457687;1195;108452;-42
2021/09/03 02:04:59;;;;;;;20.90;14.00;;;;;;;10.76;78.24;99204.30;456944;1200;97647;-42
2021/09/03 02:15:05;;;;;;;23.30;13.90;;;;;;;10.67;78.24;99192.91;457108;1195;97651;-42
2021/09/03 02:25:11;;;;;;;21.50;12.60;;;;;;;10.69;78.50;99189.29;457054;1202;108493;-43
2021/09/03 02:35:15;;;;;;;19.60;13.00;;;;;;;10.69;78.56;99178.81;456832;1195;97698;-43
2021/09/03 02:45:19;;;;;;;22.00;12.40;;;;;;;10.72;78.68;99177.09;456923;1203;109826;-42
2021/09/03 02:55:23;;;;;;;18.40;12.10;;;;;;;10.66;78.62;99165.81;456987;1200;108454;-41
2021/09/03 03:05:27;;;;;;;21.90;12.70;;;;;;;10.56;78.56;99155.85;457044;1196;97267;-41
2021/09/03 03:15:31;;;;;;;24.80;12.80;;;;;;;10.51;78.76;99150.36;456784;1200;108619;-42
2021/09/03 03:25:35;;;;;;;22.30;12.40;;;;;;;10.50;78.94;99147.20;456909;1203;97256;-42
2021/09/03 03:35:38;;;;;;;23.00;13.60;;;;;;;10.47;79.04;99145.00;456995;1203;110301;-43
2021/09/03 03:45:42;;;;;;;24.50;13.80;;;;;;;10.38;78.96;99139.53;456801;1202;108462;-43
2021/09/03 03:55:46;;;;;;;28.00;14.10;;;;;;;10.25;79.10;99125.48;456901;1195;96523;-42
2021/09/03 04:05:50;;;;;;;28.20;13.50;;;;;;;10.25;79.23;99116.69;456831;1202;108020;-42
2021/09/03 04:15:53;;;;;;;23.70;14.10;;;;;;;10.30;79.32;99110.15;456928;1200;97650;-42
2021/09/03 04:25:56;;;;;;;26.10;16.30;;;;;;;10.40;79.54;99104.21;456687;1202;112789;-42
2021/09/03 04:36:00;;;;;;;29.10;16.60;;;;;;;10.56;79.72;99104.88;456605;1200;107866;-43
2021/09/03 04:46:03;;;;;;;27.70;15.00;;;;;;;10.62;79.55;99106.33;456878;1197;97243;-41
2021/09/03 04:56:07;;;;;;;26.00;15.80;;;;;;;10.69;79.35;99117.66;456638;1195;108479;-42
2021/09/03 05:06:11;;;;;;;18.80;12.90;;;;;;;10.95;79.70;99118.52;456656;1202;96435;-42
2021/09/03 05:16:15;;;;;;;22.50;15.00;;;;;;;12.30;80.28;99101.65;456742;1202;110359;-42
2021/09/03 05:26:19;;;;;;;68.80;26.00;;;;;;;14.15;79.86;99097.84;456817;1200;97783;-42
2021/09/03 05:36:23;;;;;;;42.70;18.90;;;;;;;15.43;78.62;99095.98;456641;1202;97672;-42
2021/09/03 05:46:27;;;;;;;23.00;14.30;;;;;;;16.59;77.94;99093.52;456561;1200;110818;-41
2021/09/03 05:56:30;;;;;;;19.50;12.30;;;;;;;17.64;77.03;99092.84;456839;1202;97806;-42
2021/09/03 06:06:33;;;;;;;20.10;13.00;;;;;;;18.64;76.29;99092.02;456855;1200;97400;-41
2021/09/03 06:16:37;;;;;;;18.60;13.40;;;;;;;19.41;75.16;99094.32;456353;1203;97697;-41
2021/09/03 06:26:41;;;;;;;16.60;12.80;;;;;;;19.95;74.21;99096.16;456819;1202;108797;-41
2021/09/03 06:36:45;;;;;;;21.00;11.70;;;;;;;20.70;73.24;99083.24;456888;1202;97777;-42
2021/09/03 06:46:48;;;;;;;13.50;11.10;;;;;;;20.98;71.71;99083.70;456840;1202;98327;-42
2021/09/03 06:56:52;;;;;;;12.20;9.90;;;;;;;21.45;70.96;99089.16;456974;1195;97727;-42
2021/09/03 07:06:55;;;;;;;12.50;8.90;;;;;;;21.82;70.30;99080.02;456946;1202;108389;-42
2021/09/03 07:16:59;;;;;;;11.10;8.80;;;;;;;22.21;69.57;99072.60;456840;1202;97675;-42
2021/09/03 07:27:03;;;;;;;8.40;6.90;;;;;;;22.27;68.48;99070.29;456813;1202;98357;-43
2021/09/03 07:37:07;;;;;;;6.80;5.70;;;;;;;22.21;67.68;99070.06;457012;1202;107568;-42
2021/09/03 07:47:10;;;;;;;8.40;5.30;;;;;;;22.02;66.94;99067.02;456962;1195;97667;-42
2021/09/03 07:57:14;;;;;;;7.60;6.00;;;;;;;21.97;66.62;99059.77;457218;1202;97240;-42
2021/09/03 08:07:18;;;;;;;11.00;8.30;;;;;;;22.20;65.85;99057.90;456186;1203;108977;-42
2021/09/03 08:17:21;;;;;;;15.20;10.60;;;;;;;22.18;65.32;99057.26;456799;1202;98046;-47
2021/09/03 08:27:25;;;;;;;9.30;4.40;;;;;;;22.44;64.73;99050.01;456913;1202;97649;-44
2021/09/03 08:37:28;;;;;;;5.80;4.20;;;;;;;22.50;63.71;99046.66;456760;1197;106921;-43
2021/09/03 08:47:32;;;;;;;5.60;4.10;;;;;;;22.50;62.60;99047.80;456878;1197;97656;-44
2021/09/03 08:57:36;;;;;;;5.30;4.60;;;;;;;22.71;62.45;99033.54;457111;1202;97678;-43
2021/09/03 09:07:39;;;;;;;5.30;4.00;;;;;;;22.68;60.87;99033.11;456869;1197;107720;-42
2021/09/03 09:17:44;;;;;;;4.90;4.30;;;;;;;22.75;60.44;99029.27;457268;1195;97637;-41
2021/09/03 09:27:48;;;;;;;5.50;4.20;;;;;;;22.57;59.09;99021.95;457021;1202;97672;-42
2021/09/03 09:37:52;;;;;;;8.70;4.60;;;;;;;22.65;59.40;99014.25;457031;1195;108443;-43
2021/09/03 09:58:09;;;;;;;5.80;4.20;;;;;;;22.48;58.12;98990.71;457026;1195;110691;-44
2021/09/03 10:08:14;;;;;;;5.30;4.60;;;;;;;21.94;58.21;98979.64;457087;1203;108451;-43
2021/09/03 10:18:18;;;;;;;6.90;4.90;;;;;;;22.29;58.36;98971.98;456949;1202;109147;-41
2021/09/03 10:28:24;;;;;;;12.30;6.10;;;;;;;22.80;57.70;98966.89;457100;1202;97808;-42
2021/09/03 10:38:31;;;;;;;6.00;5.40;;;;;;;23.10;56.91;98959.38;456850;1202;107731;-42
2021/09/03 10:48:35;;;;;;;7.00;5.40;;;;;;;22.42;56.56;98947.70;456876;1195;99282;-42
2021/09/03 10:58:47;;;;;;;12.00;5.90;;;;;;;21.82;57.24;98938.11;456559;1196;112251;-43
2021/09/03 11:08:52;;;;;;;8.00;5.40;;;;;;;21.97;57.97;98927.94;456457;1196;107938;-43
2021/09/03 11:19:00;;;;;;;7.60;5.50;;;;;;;22.56;57.81;98915.47;456354;1203;99045;-40
2021/09/03 11:39:15;;;;;;;6.80;5.60;;;;;;;23.21;56.67;98908.67;456368;1204;98530;-41
2021/09/03 11:49:22;;;;;;;7.20;5.80;;;;;;;22.79;55.40;98907.48;456264;1205;112504;-40
2021/09/03 11:59:25;;;;;;;11.90;6.30;;;;;;;21.96;56.33;98900.23;456411;1203;108426;-44
2021/09/03 12:09:35;;;;;;;8.90;6.10;;;;;;;22.10;57.19;98892.05;456200;1203;99304;-42
2021/09/03 12:19:39;;;;;;;6.00;5.40;;;;;;;22.37;56.33;98872.09;456356;1203;112163;-41
2021/09/03 12:29:43;;;;;;;9.80;5.60;;;;;;;22.56;56.36;98862.59;456361;1203;108969;-42
2021/09/03 12:39:47;;;;;;;7.10;6.20;;;;;;;22.55;55.46;98853.45;456083;1203;99147;-41
2021/09/03 12:49:50;;;;;;;7.10;6.20;;;;;;;22.46;55.31;98851.89;456180;1196;108534;-41
2021/09/03 12:59:54;;;;;;;8.60;6.40;;;;;;;22.45;55.29;98833.98;456508;1203;99006;-41
2021/09/03 13:09:57;;;;;;;9.90;6.30;;;;;;;22.35;55.22;98822.35;456034;1203;111725;-42
2021/09/03 13:20:01;;;;;;;6.10;5.00;;;;;;;22.31;54.92;98821.90;456580;1203;108194;-42
2021/09/03 13:30:05;;;;;;;7.10;5.30;;;;;;;22.11;54.24;98807.40;456636;1197;98997;-41
2021/09/03 13:40:11;;;;;;;6.10;5.50;;;;;;;22.10;54.50;98807.58;456264;1203;108856;-41
2021/09/03 13:50:19;;;;;;;10.40;5.40;;;;;;;22.12;54.58;98799.08;456280;1204;97760;-42
2021/09/03 14:00:22;;;;;;;;;;;;;;;22.19;53.94;98789.66;456536;1197;112302;-42
2021/09/03 14:10:24;;;;;;;10.50;5.10;;;;;;;22.22;54.13;98779.52;455919;1203;108491;-41
2021/09/03 14:20:28;;;;;;;8.00;5.20;;;;;;;22.24;54.09;98771.56;456537;1203;98715;-40
2021/09/03 14:30:31;;;;;;;8.10;5.10;;;;;;;22.08;54.05;98760.00;456431;1197;108304;-41
2021/09/03 14:40:37;;;;;;;8.20;5.00;;;;;;;21.96;53.95;98750.86;456601;1203;99673;-41
2021/09/03 14:50:40;;;;;;;9.10;5.40;;;;;;;21.65;53.68;98744.47;456008;1203;113014;-42
2021/09/03 15:00:43;;;;;;;11.10;5.50;;;;;;;21.55;54.24;98739.34;456040;1203;108235;-40
2021/09/03 15:10:48;;;;;;;7.40;5.80;;;;;;;21.28;54.68;98734.48;456071;1203;99297;-41
2021/09/03 15:20:52;;;;;;;9.70;5.90;;;;;;;21.11;55.02;98727.71;456326;1203;97782;-41
2021/09/03 15:30:55;;;;;;;10.40;6.30;;;;;;;21.01;55.31;98719.16;456396;1203;108483;-43
2021/09/03 15:40:59;;;;;;;15.40;6.20;;;;;;;20.97;55.83;98715.15;456682;1198;99032;-41
2021/09/03 15:51:03;;;;;;;5.90;5.30;;;;;;;20.85;56.02;98707.46;456228;1203;99038;-41
2021/09/03 16:11:11;;;;;;;9.20;5.90;;;;;;;20.49;56.60;98685.74;456561;1203;98654;-41
2021/09/03 16:21:15;;;;;;;7.30;5.80;;;;;;;20.27;57.18;98683.67;456053;1204;108616;-41
2021/09/03 16:41:22;;;;;;;14.00;8.60;;;;;;;19.83;58.10;98673.58;456550;1203;112171;-43
2021/09/03 16:51:26;;;;;;;17.20;8.60;;;;;;;19.54;58.64;98669.69;456116;1200;108216;-42
2021/09/03 17:01:29;;;;;;;15.10;10.50;;;;;;;19.27;58.96;98669.87;456481;1203;99049;-42
2021/09/03 17:11:34;;;;;;;17.90;10.30;;;;;;;19.03;59.62;98670.39;456653;1197;108419;-42
2021/09/03 17:21:38;;;;;;;21.00;11.00;;;;;;;18.74;60.33;98671.52;456678;1203;98993;-42
2021/09/03 17:31:41;;;;;;;89.00;55.00;;;;;;;18.36;61.01;98669.19;456350;1203;112356;-43
2021/09/03 17:41:45;;;;;;;50.90;35.80;;;;;;;17.83;61.58;98678.27;456102;1205;109092;-42
2021/09/03 17:51:48;;;;;;;49.80;31.90;;;;;;;17.42;62.33;98681.81;456513;1204;99032;-42
2021/09/03 18:01:52;;;;;;;24.40;18.80;;;;;;;17.15;62.87;98683.23;456362;1203;108452;-41
2021/09/03 18:11:56;;;;;;;21.90;15.00;;;;;;;16.97;63.42;98682.23;456491;1203;99009;-44
2021/09/03 18:22:00;;;;;;;20.40;13.60;;;;;;;16.79;63.82;98683.81;456581;1204;111188;-42
2021/09/03 18:32:04;;;;;;;23.00;15.00;;;;;;;16.52;64.12;98688.96;456534;1198;108528;-43
2021/09/03 18:42:08;;;;;;;18.00;13.00;;;;;;;16.40;64.58;98693.02;456600;1198;99019;-41
2021/09/03 18:52:12;;;;;;;25.70;18.60;;;;;;;16.31;65.17;98699.72;456780;1199;110132;-42
2021/09/03 19:02:16;;;;;;;23.70;18.20;;;;;;;16.04;65.38;98701.60;456727;1204;99028;-42
2021/09/03 19:12:20;;;;;;;25.20;16.90;;;;;;;15.72;65.64;98704.41;456515;1204;112085;-41
2021/09/03 19:22:24;;;;;;;26.70;17.60;;;;;;;15.43;66.12;98708.27;456554;1199;108631;-41
2021/09/03 19:32:28;;;;;;;32.40;18.70;;;;;;;15.17;66.76;98703.59;456975;1200;99034;-42
2021/09/03 19:42:31;;;;;;;29.60;17.70;;;;;;;14.95;67.07;98702.49;456539;1204;108518;-42
2021/09/03 19:52:35;;;;;;;34.30;21.20;;;;;;;14.76;67.80;98708.21;456613;1204;98544;-42
2021/09/03 20:02:39;;;;;;;32.80;22.10;;;;;;;14.70;68.36;98713.77;456681;1196;112483;-41
2021/09/03 20:12:43;;;;;;;28.10;18.80;;;;;;;14.68;68.57;98713.91;456668;1204;98582;-42
2021/09/03 20:22:47;;;;;;;23.70;15.30;;;;;;;14.70;68.72;98710.90;456601;1204;98627;-42
2021/09/03 20:32:51;;;;;;;29.70;18.10;;;;;;;14.67;68.96;98707.35;456577;1203;112299;-42
2021/09/03 20:42:54;;;;;;;25.70;17.90;;;;;;;14.63;69.26;98704.96;456460;1204;108389;-42
2021/09/03 20:52:58;;;;;;;23.40;16.30;;;;;;;14.57;69.65;98703.38;456757;1196;98049;-42
2021/09/03 21:03:01;;;;;;;23.40;14.80;;;;;;;14.54;69.86;98704.58;456609;1204;108383;-42
2021/09/03 21:33:15;;;;;;;15.60;11.30;;;;;;;14.76;70.16;98692.03;456536;1204;108383;-42
2021/09/03 21:43:18;;;;;;;23.00;13.40;;;;;;;14.84;70.55;98694.21;456775;1200;99280;-42
2021/09/03 21:53:21;;;;;;;23.20;17.40;;;;;;;14.78;70.47;98698.48;456659;1199;108414;-42
2021/09/03 22:03:25;;;;;;;24.10;15.70;;;;;;;14.53;70.44;98695.61;456691;1199;99018;-43
2021/09/03 22:13:29;;;;;;;23.20;15.10;;;;;;;14.21;70.51;98688.66;456794;1203;112027;-43
2021/09/03 22:23:33;;;;;;;19.30;14.10;;;;;;;14.09;71.08;98690.02;456800;1204;108750;-42
2021/09/03 22:33:36;;;;;;;18.20;13.70;;;;;;;14.08;71.30;98679.60;456864;1196;99013;-42
2021/09/03 22:43:39;;;;;;;26.10;15.80;;;;;;;14.04;71.54;98689.02;456806;1203;108134;-42
2021/09/03 22:53:43;;;;;;;22.70;16.80;;;;;;;13.72;71.54;98703.29;456883;1204;99019;-41
2021/09/03 23:03:47;;;;;;;17.60;14.40;;;;;;;13.44;71.70;98708.46;456761;1196;112357;-45
2021/09/03 23:13:51;;;;;;;19.90;15.00;;;;;;;13.31;72.04;98714.67;456700;1203;108448;-42
2021/09/03 23:23:55;;;;;;;17.20;13.10;;;;;;;13.27;72.55;98716.42;456883;1196;99000;-42
2021/09/03 23:33:58;;;;;;;19.50;14.20;;;;;;;13.09;72.33;98708.45;456895;1196;108466;-41
2021/09/03 23:44:03;;;;;;;23.00;15.80;;;;;;;12.90;72.79;98706.34;456682;1203;99051;-41
2021/09/03 23:54:07;;;;;;;23.70;17.50;;;;;;;12.69;73.08;98706.59;456713;1203;112055;-43
